sensor_id;sensor_type;location;lat;lon;timestamp;temperature;humidity
73586;DHT22;61865;50.232;18.614;2023-04-10T00:00:05;6.70;99.90
73586;DHT22;61865;50.232;18.614;2023-04-10T00:02:28;6.60;99.90
73586;DHT22;61865;50.232;18.614;2023-04-10T00:04:49;6.60;99.90
73586;DHT22;61865;50.232;18.614;2023-04-10T00:07:11;6.60;99.90
73586;DHT22;61865;50.232;18.614;2023-04-10T00:09:33;6.50;99.90
73586;DHT22;61865;50.232;18.614;2023-04-10T00:11:55;6.60;99.90
73586;DHT22;61865;50.232;18.614;2023-04-10T00:14:19;6.60;99.90
73586;DHT22;61865;50.232;18.614;2023-04-10T00:16:42;6.70;99.90
73586;DHT22;61865;50.232;18.614;2023-04-10T00:19:04;6.70;99.90
73586;DHT22;61865;50.232;18.614;2023-04-10T00:21:27;6.70;99.90
73586;DHT22;61865;50.232;18.614;2023-04-10T00:23:49;6.60;99.90
73586;DHT22;61865;50.232;18.614;2023-04-10T00:26:11;6.60;99.90
73586;DHT22;61865;50.232;18.614;2023-04-10T00:28:32;6.60;99.90
73586;DHT22;61865;50.232;18.614;2023-04-10T00:30:58;6.60;99.90
73586;DHT22;61865;50.232;18.614;2023-04-10T00:33:20;6.60;99.90
73586;DHT22;61865;50.232;18.614;2023-04-10T00:35:42;6.50;99.90
73586;DHT22;61865;50.232;18.614;2023-04-10T00:38:04;6.40;99.90
73586;DHT22;61865;50.232;18.614;2023-04-10T00:40:26;6.50;99.90
73586;DHT22;61865;50.232;18.614;2023-04-10T00:42:50;6.30;99.90
73586;DHT22;61865;50.232;18.614;2023-04-10T00:45:11;6.30;99.90
73586;DHT22;61865;50.232;18.614;2023-04-10T00:47:36;6.20;99.90
73586;DHT22;61865;50.232;18.614;2023-04-10T00:49:58;6.20;99.90
73586;DHT22;61865;50.232;18.614;2023-04-10T00:52:20;6.20;99.90
73586;DHT22;61865;50.232;18.614;2023-04-10T00:54:42;6.10;99.90
73586;DHT22;61865;50.232;18.614;2023-04-10T00:57:04;6.20;99.90
73586;DHT22;61865;50.232;18.614;2023-04-10T00:59:26;6.30;99.90
73586;DHT22;61865;50.232;18.614;2023-04-10T01:01:48;6.40;99.90
73586;DHT22;61865;50.232;18.614;2023-04-10T01:04:13;6.40;99.90
73586;DHT22;61865;50.232;18.614;2023-04-10T01:06:48;6.50;99.90
73586;DHT22;61865;50.232;18.614;2023-04-10T01:09:19;6.40;99.90
73586;DHT22;61865;50.232;18.614;2023-04-10T01:11:52;6.30;99.90
73586;DHT22;61865;50.232;18.614;2023-04-10T01:14:22;6.30;99.90
73586;DHT22;61865;50.232;18.614;2023-04-10T01:16:53;6.30;99.90
73586;DHT22;61865;50.232;18.614;2023-04-10T01:19:26;6.40;99.90
73586;DHT22;61865;50.232;18.614;2023-04-10T01:21:53;6.40;99.90
73586;DHT22;61865;50.232;18.614;2023-04-10T01:24:27;6.30;99.90
73586;DHT22;61865;50.232;18.614;2023-04-10T01:27:09;6.40;99.90
73586;DHT22;61865;50.232;18.614;2023-04-10T01:29:35;6.30;99.90
73586;DHT22;61865;50.232;18.614;2023-04-10T01:32:07;6.30;99.90
73586;DHT22;61865;50.232;18.614;2023-04-10T01:34:32;6.20;99.90
73586;DHT22;61865;50.232;18.614;2023-04-10T01:37:00;6.20;99.90
73586;DHT22;61865;50.232;18.614;2023-04-10T01:39:23;6.20;99.90
73586;DHT22;61865;50.232;18.614;2023-04-10T01:41:47;6.10;99.90
73586;DHT22;61865;50.232;18.614;2023-04-10T01:44:12;6.20;99.90
73586;DHT22;61865;50.232;18.614;2023-04-10T01:46:36;6.30;99.90
73586;DHT22;61865;50.232;18.614;2023-04-10T01:49:00;6.50;99.90
73586;DHT22;61865;50.232;18.614;2023-04-10T01:51:22;6.50;99.90
73586;DHT22;61865;50.232;18.614;2023-04-10T01:53:47;6.40;99.90
73586;DHT22;61865;50.232;18.614;2023-04-10T01:56:09;6.40;99.90
73586;DHT22;61865;50.232;18.614;2023-04-10T01:58:31;6.40;99.90
73586;DHT22;61865;50.232;18.614;2023-04-10T02:00:53;6.40;99.90
73586;DHT22;61865;50.232;18.614;2023-04-10T02:03:16;6.50;99.90
73586;DHT22;61865;50.232;18.614;2023-04-10T02:05:47;6.60;99.90
73586;DHT22;61865;50.232;18.614;2023-04-10T02:08:14;6.60;99.90
73586;DHT22;61865;50.232;18.614;2023-04-10T02:10:39;6.50;99.90
73586;DHT22;61865;50.232;18.614;2023-04-10T02:13:05;6.60;99.90
73586;DHT22;61865;50.232;18.614;2023-04-10T02:15:30;6.60;99.90
73586;DHT22;61865;50.232;18.614;2023-04-10T02:17:54;6.60;99.90
73586;DHT22;61865;50.232;18.614;2023-04-10T02:20:18;6.60;99.90
73586;DHT22;61865;50.232;18.614;2023-04-10T02:22:41;6.40;99.90
73586;DHT22;61865;50.232;18.614;2023-04-10T02:25:04;6.50;99.90
73586;DHT22;61865;50.232;18.614;2023-04-10T02:27:28;6.60;99.90
73586;DHT22;61865;50.232;18.614;2023-04-10T02:29:50;6.60;99.90
73586;DHT22;61865;50.232;18.614;2023-04-10T02:32:12;6.70;99.90
73586;DHT22;61865;50.232;18.614;2023-04-10T02:34:36;6.60;99.90
73586;DHT22;61865;50.232;18.614;2023-04-10T02:36:59;6.70;99.90
73586;DHT22;61865;50.232;18.614;2023-04-10T02:39:20;6.90;99.90
73586;DHT22;61865;50.232;18.614;2023-04-10T02:41:42;6.80;99.90
73586;DHT22;61865;50.232;18.614;2023-04-10T02:44:04;6.60;99.90
73586;DHT22;61865;50.232;18.614;2023-04-10T02:46:27;6.60;99.90
73586;DHT22;61865;50.232;18.614;2023-04-10T02:48:50;6.50;99.90
73586;DHT22;61865;50.232;18.614;2023-04-10T02:51:12;6.50;99.90
73586;DHT22;61865;50.232;18.614;2023-04-10T02:53:35;6.50;99.90
73586;DHT22;61865;50.232;18.614;2023-04-10T02:55:57;6.70;99.90
73586;DHT22;61865;50.232;18.614;2023-04-10T02:58:19;6.60;99.90
73586;DHT22;61865;50.232;18.614;2023-04-10T03:00:47;6.50;99.90
73586;DHT22;61865;50.232;18.614;2023-04-10T03:03:09;6.40;99.90
73586;DHT22;61865;50.232;18.614;2023-04-10T03:05:31;6.30;99.90
73586;DHT22;61865;50.232;18.614;2023-04-10T03:07:52;6.20;99.90
73586;DHT22;61865;50.232;18.614;2023-04-10T03:10:16;6.30;99.90
73586;DHT22;61865;50.232;18.614;2023-04-10T03:12:38;6.30;99.90
73586;DHT22;61865;50.232;18.614;2023-04-10T03:15:00;6.40;99.90
73586;DHT22;61865;50.232;18.614;2023-04-10T03:17:21;6.40;99.90
73586;DHT22;61865;50.232;18.614;2023-04-10T03:19:43;6.50;99.90
73586;DHT22;61865;50.232;18.614;2023-04-10T03:22:05;6.40;99.90
73586;DHT22;61865;50.232;18.614;2023-04-10T03:24:27;6.30;99.90
73586;DHT22;61865;50.232;18.614;2023-04-10T03:26:51;6.30;99.90
73586;DHT22;61865;50.232;18.614;2023-04-10T03:29:13;6.20;99.90
73586;DHT22;61865;50.232;18.614;2023-04-10T03:31:38;6.20;99.90
73586;DHT22;61865;50.232;18.614;2023-04-10T03:34:00;6.20;99.90
73586;DHT22;61865;50.232;18.614;2023-04-10T03:36:21;6.20;99.90
73586;DHT22;61865;50.232;18.614;2023-04-10T03:38:43;6.20;99.90
73586;DHT22;61865;50.232;18.614;2023-04-10T03:41:06;6.20;99.90
73586;DHT22;61865;50.232;18.614;2023-04-10T03:43:29;6.20;99.90
73586;DHT22;61865;50.232;18.614;2023-04-10T03:45:51;6.20;99.90
73586;DHT22;61865;50.232;18.614;2023-04-10T03:48:13;6.10;99.90
73586;DHT22;61865;50.232;18.614;2023-04-10T03:50:35;6.20;99.90
73586;DHT22;61865;50.232;18.614;2023-04-10T03:52:57;6.20;99.90
73586;DHT22;61865;50.232;18.614;2023-04-10T03:55:19;6.20;99.90
73586;DHT22;61865;50.232;18.614;2023-04-10T03:57:41;6.20;99.90
73586;DHT22;61865;50.232;18.614;2023-04-10T04:00:05;6.20;99.90
73586;DHT22;61865;50.232;18.614;2023-04-10T04:02:28;6.20;99.90
73586;DHT22;61865;50.232;18.614;2023-04-10T04:04:50;6.20;99.90
73586;DHT22;61865;50.232;18.614;2023-04-10T04:07:12;6.20;99.90
73586;DHT22;61865;50.232;18.614;2023-04-10T04:09:34;6.20;99.90
73586;DHT22;61865;50.232;18.614;2023-04-10T04:11:55;6.20;99.90
73586;DHT22;61865;50.232;18.614;2023-04-10T04:14:17;6.20;99.90
73586;DHT22;61865;50.232;18.614;2023-04-10T04:16:40;6.20;99.90
73586;DHT22;61865;50.232;18.614;2023-04-10T04:19:02;6.20;99.90
73586;DHT22;61865;50.232;18.614;2023-04-10T04:21:24;6.20;99.90
73586;DHT22;61865;50.232;18.614;2023-04-10T04:23:47;6.20;99.90
73586;DHT22;61865;50.232;18.614;2023-04-10T04:26:08;6.20;99.90
73586;DHT22;61865;50.232;18.614;2023-04-10T04:28:30;6.30;99.90
73586;DHT22;61865;50.232;18.614;2023-04-10T04:30:52;6.20;99.90
73586;DHT22;61865;50.232;18.614;2023-04-10T04:33:15;6.30;99.90
73586;DHT22;61865;50.232;18.614;2023-04-10T04:35:37;6.20;99.90
73586;DHT22;61865;50.232;18.614;2023-04-10T04:37:59;6.30;99.90
73586;DHT22;61865;50.232;18.614;2023-04-10T04:40:21;6.30;99.90
73586;DHT22;61865;50.232;18.614;2023-04-10T04:42:43;6.30;99.90
73586;DHT22;61865;50.232;18.614;2023-04-10T04:45:06;6.30;99.90
73586;DHT22;61865;50.232;18.614;2023-04-10T04:47:28;6.30;99.90
73586;DHT22;61865;50.232;18.614;2023-04-10T04:49:51;6.30;99.90
73586;DHT22;61865;50.232;18.614;2023-04-10T04:52:13;6.30;99.90
73586;DHT22;61865;50.232;18.614;2023-04-10T04:54:35;6.30;99.90
73586;DHT22;61865;50.232;18.614;2023-04-10T04:56:56;6.30;99.90
73586;DHT22;61865;50.232;18.614;2023-04-10T04:59:18;6.40;99.90
73586;DHT22;61865;50.232;18.614;2023-04-10T05:01:40;6.40;99.90
73586;DHT22;61865;50.232;18.614;2023-04-10T05:04:02;6.40;99.90
73586;DHT22;61865;50.232;18.614;2023-04-10T05:06:25;6.40;99.90
73586;DHT22;61865;50.232;18.614;2023-04-10T05:08:47;6.50;99.90
73586;DHT22;61865;50.232;18.614;2023-04-10T05:11:09;6.50;99.90
73586;DHT22;61865;50.232;18.614;2023-04-10T05:13:30;6.50;99.90
73586;DHT22;61865;50.232;18.614;2023-04-10T05:15:52;6.50;99.90
73586;DHT22;61865;50.232;18.614;2023-04-10T05:18:14;6.60;99.90
73586;DHT22;61865;50.232;18.614;2023-04-10T05:20:38;6.60;99.90
73586;DHT22;61865;50.232;18.614;2023-04-10T05:23:02;6.50;99.90
73586;DHT22;61865;50.232;18.614;2023-04-10T05:25:24;6.60;99.90
73586;DHT22;61865;50.232;18.614;2023-04-10T05:27:45;6.60;99.90
73586;DHT22;61865;50.232;18.614;2023-04-10T05:30:08;6.60;99.90
73586;DHT22;61865;50.232;18.614;2023-04-10T05:32:30;6.50;99.90
73586;DHT22;61865;50.232;18.614;2023-04-10T05:34:52;6.50;99.90
73586;DHT22;61865;50.232;18.614;2023-04-10T05:37:14;6.50;99.90
73586;DHT22;61865;50.232;18.614;2023-04-10T05:39:37;6.60;99.90
73586;DHT22;61865;50.232;18.614;2023-04-10T05:41:59;6.60;99.90
73586;DHT22;61865;50.232;18.614;2023-04-10T05:44:21;6.60;99.90
73586;DHT22;61865;50.232;18.614;2023-04-10T05:46:42;6.60;99.90
73586;DHT22;61865;50.232;18.614;2023-04-10T05:49:04;6.60;99.90
73586;DHT22;61865;50.232;18.614;2023-04-10T05:51:26;6.60;99.90
73586;DHT22;61865;50.232;18.614;2023-04-10T05:53:49;6.60;99.90
73586;DHT22;61865;50.232;18.614;2023-04-10T05:56:12;6.60;99.90
73586;DHT22;61865;50.232;18.614;2023-04-10T05:58:34;6.70;99.90
73586;DHT22;61865;50.232;18.614;2023-04-10T06:00:56;6.70;99.90
73586;DHT22;61865;50.232;18.614;2023-04-10T06:03:18;6.70;99.90
73586;DHT22;61865;50.232;18.614;2023-04-10T06:05:40;6.70;99.90
73586;DHT22;61865;50.232;18.614;2023-04-10T06:08:02;6.70;99.90
73586;DHT22;61865;50.232;18.614;2023-04-10T06:10:24;6.80;99.90
73586;DHT22;61865;50.232;18.614;2023-04-10T06:12:50;6.80;99.90
73586;DHT22;61865;50.232;18.614;2023-04-10T06:15:12;6.80;99.90
73586;DHT22;61865;50.232;18.614;2023-04-10T06:17:33;6.80;99.90
73586;DHT22;61865;50.232;18.614;2023-04-10T06:19:55;6.80;99.90
73586;DHT22;61865;50.232;18.614;2023-04-10T06:22:20;6.90;99.90
73586;DHT22;61865;50.232;18.614;2023-04-10T06:24:45;6.90;99.90
73586;DHT22;61865;50.232;18.614;2023-04-10T06:27:07;6.80;99.90
73586;DHT22;61865;50.232;18.614;2023-04-10T06:29:30;6.90;99.90
73586;DHT22;61865;50.232;18.614;2023-04-10T06:31:52;6.90;99.90
73586;DHT22;61865;50.232;18.614;2023-04-10T06:34:14;6.80;99.90
73586;DHT22;61865;50.232;18.614;2023-04-10T06:36:36;6.80;99.90
73586;DHT22;61865;50.232;18.614;2023-04-10T06:38:58;6.90;99.90
73586;DHT22;61865;50.232;18.614;2023-04-10T06:41:22;6.90;99.90
73586;DHT22;61865;50.232;18.614;2023-04-10T06:43:43;6.90;99.90
73586;DHT22;61865;50.232;18.614;2023-04-10T06:46:07;7.00;99.90
73586;DHT22;61865;50.232;18.614;2023-04-10T06:48:30;7.00;99.90
73586;DHT22;61865;50.232;18.614;2023-04-10T06:50:51;7.00;99.90
73586;DHT22;61865;50.232;18.614;2023-04-10T06:53:13;7.00;99.90
73586;DHT22;61865;50.232;18.614;2023-04-10T06:55:35;6.90;99.90
73586;DHT22;61865;50.232;18.614;2023-04-10T06:57:58;7.00;99.90
73586;DHT22;61865;50.232;18.614;2023-04-10T07:00:19;7.10;99.90
73586;DHT22;61865;50.232;18.614;2023-04-10T07:02:43;7.20;99.90
73586;DHT22;61865;50.232;18.614;2023-04-10T07:05:05;7.20;99.90
73586;DHT22;61865;50.232;18.614;2023-04-10T07:07:27;7.10;99.90
73586;DHT22;61865;50.232;18.614;2023-04-10T07:09:49;7.20;99.90
73586;DHT22;61865;50.232;18.614;2023-04-10T07:12:11;7.10;99.90
73586;DHT22;61865;50.232;18.614;2023-04-10T07:14:33;7.10;99.90
73586;DHT22;61865;50.232;18.614;2023-04-10T07:16:55;7.20;99.90
73586;DHT22;61865;50.232;18.614;2023-04-10T07:19:18;7.30;99.90
73586;DHT22;61865;50.232;18.614;2023-04-10T07:21:40;7.30;99.90
73586;DHT22;61865;50.232;18.614;2023-04-10T07:24:02;7.30;99.90
73586;DHT22;61865;50.232;18.614;2023-04-10T07:26:24;7.40;99.90
73586;DHT22;61865;50.232;18.614;2023-04-10T07:28:46;7.40;99.90
73586;DHT22;61865;50.232;18.614;2023-04-10T07:31:07;7.50;99.90
73586;DHT22;61865;50.232;18.614;2023-04-10T07:33:30;7.50;99.90
73586;DHT22;61865;50.232;18.614;2023-04-10T07:35:53;7.50;99.90
73586;DHT22;61865;50.232;18.614;2023-04-10T07:38:15;7.80;99.90
73586;DHT22;61865;50.232;18.614;2023-04-10T07:40:37;8.00;99.90
73586;DHT22;61865;50.232;18.614;2023-04-10T07:43:02;8.00;99.90
73586;DHT22;61865;50.232;18.614;2023-04-10T07:45:23;7.90;99.90
73586;DHT22;61865;50.232;18.614;2023-04-10T07:47:47;8.00;99.90
73586;DHT22;61865;50.232;18.614;2023-04-10T07:50:09;7.90;99.90
73586;DHT22;61865;50.232;18.614;2023-04-10T07:52:32;8.00;99.90
73586;DHT22;61865;50.232;18.614;2023-04-10T07:54:55;8.00;99.90
73586;DHT22;61865;50.232;18.614;2023-04-10T07:57:21;7.90;99.90
73586;DHT22;61865;50.232;18.614;2023-04-10T07:59:44;7.80;99.90
73586;DHT22;61865;50.232;18.614;2023-04-10T08:02:05;7.90;99.90
73586;DHT22;61865;50.232;18.614;2023-04-10T08:04:27;7.90;99.90
73586;DHT22;61865;50.232;18.614;2023-04-10T08:06:49;8.10;99.90
73586;DHT22;61865;50.232;18.614;2023-04-10T08:09:12;7.90;99.90
73586;DHT22;61865;50.232;18.614;2023-04-10T08:11:35;8.10;99.90
73586;DHT22;61865;50.232;18.614;2023-04-10T08:13:59;8.00;99.90
73586;DHT22;61865;50.232;18.614;2023-04-10T08:16:23;8.10;99.90
73586;DHT22;61865;50.232;18.614;2023-04-10T08:18:45;8.30;99.90
73586;DHT22;61865;50.232;18.614;2023-04-10T08:21:07;8.60;99.90
73586;DHT22;61865;50.232;18.614;2023-04-10T08:23:29;8.60;99.90
73586;DHT22;61865;50.232;18.614;2023-04-10T08:25:52;8.30;99.90
73586;DHT22;61865;50.232;18.614;2023-04-10T08:28:14;8.20;99.90
73586;DHT22;61865;50.232;18.614;2023-04-10T08:30:36;8.40;99.90
73586;DHT22;61865;50.232;18.614;2023-04-10T08:32:58;8.50;99.90
73586;DHT22;61865;50.232;18.614;2023-04-10T08:35:20;8.60;99.90
73586;DHT22;61865;50.232;18.614;2023-04-10T08:37:42;8.70;99.90
73586;DHT22;61865;50.232;18.614;2023-04-10T08:40:04;8.80;99.90
73586;DHT22;61865;50.232;18.614;2023-04-10T08:42:28;8.80;99.90
73586;DHT22;61865;50.232;18.614;2023-04-10T08:44:52;8.90;99.90
73586;DHT22;61865;50.232;18.614;2023-04-10T08:47:14;9.00;99.90
73586;DHT22;61865;50.232;18.614;2023-04-10T08:49:43;9.00;99.90
73586;DHT22;61865;50.232;18.614;2023-04-10T08:52:08;9.10;99.90
73586;DHT22;61865;50.232;18.614;2023-04-10T08:54:32;9.30;99.90
73586;DHT22;61865;50.232;18.614;2023-04-10T08:56:56;9.30;99.90
73586;DHT22;61865;50.232;18.614;2023-04-10T08:59:21;9.30;99.90
73586;DHT22;61865;50.232;18.614;2023-04-10T09:01:44;9.20;99.90
73586;DHT22;61865;50.232;18.614;2023-04-10T09:04:08;9.10;99.90
73586;DHT22;61865;50.232;18.614;2023-04-10T09:06:31;9.20;99.90
73586;DHT22;61865;50.232;18.614;2023-04-10T09:08:53;9.20;99.90
73586;DHT22;61865;50.232;18.614;2023-04-10T09:11:15;9.20;99.90
73586;DHT22;61865;50.232;18.614;2023-04-10T09:13:38;9.10;99.90
73586;DHT22;61865;50.232;18.614;2023-04-10T09:16:02;9.20;99.90
73586;DHT22;61865;50.232;18.614;2023-04-10T09:18:43;9.20;99.90
73586;DHT22;61865;50.232;18.614;2023-04-10T09:21:06;9.00;99.90
73586;DHT22;61865;50.232;18.614;2023-04-10T09:23:28;9.00;99.90
73586;DHT22;61865;50.232;18.614;2023-04-10T09:25:49;9.10;99.90
73586;DHT22;61865;50.232;18.614;2023-04-10T09:28:11;9.10;99.90
73586;DHT22;61865;50.232;18.614;2023-04-10T09:30:35;9.20;99.90
73586;DHT22;61865;50.232;18.614;2023-04-10T09:32:58;9.30;99.90
73586;DHT22;61865;50.232;18.614;2023-04-10T09:35:20;9.30;99.90
73586;DHT22;61865;50.232;18.614;2023-04-10T09:37:44;9.20;99.90
73586;DHT22;61865;50.232;18.614;2023-04-10T09:40:21;9.20;99.90
73586;DHT22;61865;50.232;18.614;2023-04-10T09:42:44;9.40;99.90
73586;DHT22;61865;50.232;18.614;2023-04-10T09:45:06;9.50;99.90
73586;DHT22;61865;50.232;18.614;2023-04-10T09:47:29;9.60;99.90
73586;DHT22;61865;50.232;18.614;2023-04-10T09:49:53;9.60;99.90
73586;DHT22;61865;50.232;18.614;2023-04-10T09:52:19;9.70;99.90
73586;DHT22;61865;50.232;18.614;2023-04-10T09:54:41;9.90;99.90
73586;DHT22;61865;50.232;18.614;2023-04-10T09:57:07;10.10;99.90
73586;DHT22;61865;50.232;18.614;2023-04-10T09:59:30;10.20;99.90
73586;DHT22;61865;50.232;18.614;2023-04-10T10:01:52;10.20;99.90
73586;DHT22;61865;50.232;18.614;2023-04-10T10:04:15;10.20;99.90
73586;DHT22;61865;50.232;18.614;2023-04-10T10:06:38;10.20;99.90
73586;DHT22;61865;50.232;18.614;2023-04-10T10:09:01;10.30;99.90
73586;DHT22;61865;50.232;18.614;2023-04-10T10:11:24;10.20;99.90
73586;DHT22;61865;50.232;18.614;2023-04-10T10:13:49;10.10;99.90
73586;DHT22;61865;50.232;18.614;2023-04-10T10:16:17;10.00;99.90
73586;DHT22;61865;50.232;18.614;2023-04-10T10:18:43;10.20;99.90
73586;DHT22;61865;50.232;18.614;2023-04-10T10:21:07;10.20;99.90
73586;DHT22;61865;50.232;18.614;2023-04-10T10:23:32;10.30;99.90
73586;DHT22;61865;50.232;18.614;2023-04-10T10:25:57;10.50;99.90
73586;DHT22;61865;50.232;18.614;2023-04-10T10:28:20;10.50;99.90
73586;DHT22;61865;50.232;18.614;2023-04-10T10:30:45;10.30;99.90
73586;DHT22;61865;50.232;18.614;2023-04-10T10:33:07;10.30;99.90
73586;DHT22;61865;50.232;18.614;2023-04-10T10:35:31;10.40;99.90
73586;DHT22;61865;50.232;18.614;2023-04-10T10:37:54;10.30;99.90
73586;DHT22;61865;50.232;18.614;2023-04-10T10:40:21;10.40;99.90
73586;DHT22;61865;50.232;18.614;2023-04-10T10:42:52;10.50;99.90
73586;DHT22;61865;50.232;18.614;2023-04-10T10:45:24;10.70;99.90
73586;DHT22;61865;50.232;18.614;2023-04-10T10:47:50;10.90;99.90
73586;DHT22;61865;50.232;18.614;2023-04-10T10:50:12;10.90;99.90
73586;DHT22;61865;50.232;18.614;2023-04-10T10:52:42;11.00;99.90
73586;DHT22;61865;50.232;18.614;2023-04-10T10:55:28;11.00;99.90
73586;DHT22;61865;50.232;18.614;2023-04-10T10:57:52;11.10;99.90
73586;DHT22;61865;50.232;18.614;2023-04-10T11:00:14;11.40;99.90
73586;DHT22;61865;50.232;18.614;2023-04-10T11:02:39;11.40;99.90
73586;DHT22;61865;50.232;18.614;2023-04-10T11:05:01;11.40;99.90
73586;DHT22;61865;50.232;18.614;2023-04-10T11:13:21;11.40;99.90
73586;DHT22;61865;50.232;18.614;2023-04-10T11:15:44;11.40;99.90
73586;DHT22;61865;50.232;18.614;2023-04-10T11:18:06;11.60;99.90
73586;DHT22;61865;50.232;18.614;2023-04-10T11:20:28;11.90;99.90
73586;DHT22;61865;50.232;18.614;2023-04-10T11:23:12;11.70;99.90
73586;DHT22;61865;50.232;18.614;2023-04-10T11:25:50;11.80;99.90
73586;DHT22;61865;50.232;18.614;2023-04-10T11:28:33;11.70;99.90
73586;DHT22;61865;50.232;18.614;2023-04-10T11:30:55;12.10;99.90
73586;DHT22;61865;50.232;18.614;2023-04-10T11:33:18;12.40;99.90
73586;DHT22;61865;50.232;18.614;2023-04-10T11:35:40;12.40;99.90
73586;DHT22;61865;50.232;18.614;2023-04-10T11:38:15;12.10;99.90
73586;DHT22;61865;50.232;18.614;2023-04-10T11:40:55;12.20;99.90
73586;DHT22;61865;50.232;18.614;2023-04-10T11:43:17;12.60;99.90
73586;DHT22;61865;50.232;18.614;2023-04-10T11:45:41;13.00;99.90
73586;DHT22;61865;50.232;18.614;2023-04-10T11:48:03;13.20;99.90
73586;DHT22;61865;50.232;18.614;2023-04-10T11:50:27;13.00;99.90
73586;DHT22;61865;50.232;18.614;2023-04-10T11:52:51;12.90;99.90
73586;DHT22;61865;50.232;18.614;2023-04-10T11:55:13;12.80;99.90
73586;DHT22;61865;50.232;18.614;2023-04-10T11:57:36;12.90;99.90
73586;DHT22;61865;50.232;18.614;2023-04-10T11:59:57;12.60;99.90
73586;DHT22;61865;50.232;18.614;2023-04-10T12:02:21;12.60;99.90
73586;DHT22;61865;50.232;18.614;2023-04-10T12:04:43;12.50;99.90
73586;DHT22;61865;50.232;18.614;2023-04-10T12:07:05;12.90;99.90
73586;DHT22;61865;50.232;18.614;2023-04-10T12:09:27;13.10;99.90
73586;DHT22;61865;50.232;18.614;2023-04-10T12:11:50;13.00;99.90
73586;DHT22;61865;50.232;18.614;2023-04-10T12:14:12;13.20;99.90
73586;DHT22;61865;50.232;18.614;2023-04-10T12:16:34;12.70;99.90
73586;DHT22;61865;50.232;18.614;2023-04-10T12:18:57;12.50;99.90
73586;DHT22;61865;50.232;18.614;2023-04-10T12:21:19;12.50;99.90
73586;DHT22;61865;50.232;18.614;2023-04-10T12:23:42;12.70;99.90
73586;DHT22;61865;50.232;18.614;2023-04-10T12:26:10;13.00;99.90
73586;DHT22;61865;50.232;18.614;2023-04-10T12:28:32;12.80;99.90
73586;DHT22;61865;50.232;18.614;2023-04-10T12:30:53;12.60;99.90
73586;DHT22;61865;50.232;18.614;2023-04-10T12:33:19;12.50;99.90
73586;DHT22;61865;50.232;18.614;2023-04-10T12:35:43;12.80;99.90
73586;DHT22;61865;50.232;18.614;2023-04-10T12:38:05;13.00;99.90
73586;DHT22;61865;50.232;18.614;2023-04-10T12:40:27;13.00;99.90
73586;DHT22;61865;50.232;18.614;2023-04-10T12:42:49;13.20;99.90
73586;DHT22;61865;50.232;18.614;2023-04-10T12:45:11;13.20;99.90
73586;DHT22;61865;50.232;18.614;2023-04-10T12:47:43;13.40;99.90
73586;DHT22;61865;50.232;18.614;2023-04-10T12:50:07;13.40;99.90
73586;DHT22;61865;50.232;18.614;2023-04-10T12:52:31;13.70;99.90
73586;DHT22;61865;50.232;18.614;2023-04-10T12:54:53;13.80;99.90
73586;DHT22;61865;50.232;18.614;2023-04-10T12:57:25;14.20;99.90
73586;DHT22;61865;50.232;18.614;2023-04-10T12:59:47;14.30;99.90
73586;DHT22;61865;50.232;18.614;2023-04-10T13:02:09;14.00;99.90
73586;DHT22;61865;50.232;18.614;2023-04-10T13:04:31;13.90;99.90
73586;DHT22;61865;50.232;18.614;2023-04-10T13:06:53;14.00;99.90
73586;DHT22;61865;50.232;18.614;2023-04-10T13:09:16;13.70;99.90
73586;DHT22;61865;50.232;18.614;2023-04-10T13:11:38;13.40;99.90
73586;DHT22;61865;50.232;18.614;2023-04-10T13:13:59;13.20;99.90
73586;DHT22;61865;50.232;18.614;2023-04-10T13:16:21;13.20;99.90
73586;DHT22;61865;50.232;18.614;2023-04-10T13:18:43;13.00;99.90
73586;DHT22;61865;50.232;18.614;2023-04-10T13:21:05;13.10;99.90
73586;DHT22;61865;50.232;18.614;2023-04-10T13:23:27;13.40;99.90
73586;DHT22;61865;50.232;18.614;2023-04-10T13:25:50;13.40;99.90
73586;DHT22;61865;50.232;18.614;2023-04-10T13:28:13;13.00;99.90
73586;DHT22;61865;50.232;18.614;2023-04-10T13:30:36;13.00;99.90
73586;DHT22;61865;50.232;18.614;2023-04-10T13:32:58;12.90;99.90
73586;DHT22;61865;50.232;18.614;2023-04-10T13:35:19;12.90;99.90
73586;DHT22;61865;50.232;18.614;2023-04-10T13:37:41;13.00;99.90
73586;DHT22;61865;50.232;18.614;2023-04-10T13:40:04;13.00;99.90
73586;DHT22;61865;50.232;18.614;2023-04-10T13:42:27;13.00;99.90
73586;DHT22;61865;50.232;18.614;2023-04-10T13:44:49;13.00;99.90
73586;DHT22;61865;50.232;18.614;2023-04-10T13:47:11;13.30;99.90
73586;DHT22;61865;50.232;18.614;2023-04-10T13:49:32;13.20;99.90
73586;DHT22;61865;50.232;18.614;2023-04-10T13:51:55;13.40;99.90
73586;DHT22;61865;50.232;18.614;2023-04-10T13:54:17;13.50;99.90
73586;DHT22;61865;50.232;18.614;2023-04-10T13:56:39;13.40;99.90
73586;DHT22;61865;50.232;18.614;2023-04-10T13:59:03;13.70;99.90
73586;DHT22;61865;50.232;18.614;2023-04-10T14:01:25;13.90;99.90
73586;DHT22;61865;50.232;18.614;2023-04-10T14:03:47;13.80;99.90
73586;DHT22;61865;50.232;18.614;2023-04-10T14:06:08;13.60;99.90
73586;DHT22;61865;50.232;18.614;2023-04-10T14:08:30;13.70;99.90
73586;DHT22;61865;50.232;18.614;2023-04-10T14:10:52;13.70;99.90
73586;DHT22;61865;50.232;18.614;2023-04-10T14:13:16;13.60;99.90
73586;DHT22;61865;50.232;18.614;2023-04-10T14:15:39;13.80;99.90
73586;DHT22;61865;50.232;18.614;2023-04-10T14:18:01;13.60;99.90
73586;DHT22;61865;50.232;18.614;2023-04-10T14:20:23;13.40;99.90
73586;DHT22;61865;50.232;18.614;2023-04-10T14:22:45;13.20;99.90
73586;DHT22;61865;50.232;18.614;2023-04-10T14:25:07;13.20;99.90
73586;DHT22;61865;50.232;18.614;2023-04-10T14:27:30;13.10;99.90
73586;DHT22;61865;50.232;18.614;2023-04-10T14:29:52;13.10;99.90
73586;DHT22;61865;50.232;18.614;2023-04-10T14:32:16;13.10;99.90
73586;DHT22;61865;50.232;18.614;2023-04-10T14:34:38;12.90;99.90
73586;DHT22;61865;50.232;18.614;2023-04-10T14:37:00;12.80;99.90
73586;DHT22;61865;50.232;18.614;2023-04-10T14:39:23;12.90;99.90
73586;DHT22;61865;50.232;18.614;2023-04-10T14:41:45;13.10;99.90
73586;DHT22;61865;50.232;18.614;2023-04-10T14:44:07;13.00;99.90
73586;DHT22;61865;50.232;18.614;2023-04-10T14:46:28;12.90;99.90
73586;DHT22;61865;50.232;18.614;2023-04-10T14:48:52;12.80;99.90
73586;DHT22;61865;50.232;18.614;2023-04-10T14:51:13;12.70;99.90
73586;DHT22;61865;50.232;18.614;2023-04-10T14:53:36;12.70;99.90
73586;DHT22;61865;50.232;18.614;2023-04-10T14:56:00;12.70;99.90
73586;DHT22;61865;50.232;18.614;2023-04-10T14:58:21;12.70;99.90
73586;DHT22;61865;50.232;18.614;2023-04-10T15:00:43;12.80;99.90
73586;DHT22;61865;50.232;18.614;2023-04-10T15:03:05;12.80;99.90
73586;DHT22;61865;50.232;18.614;2023-04-10T15:05:29;12.70;99.90